METAR AND TAF INFORMATION
METAR FOR KMSY
KMSY 230440Z 06004KT 10SM SCT032 SCT090 26/24 A3004 RMK AO2 RAE0355 TSE38 P0000 T02560239
KMSY 230353Z 35005KT 10SM -TSRA BKN026CB BKN060 OVC090 26/24 A3004 RMK AO2 TSE12B20 SLP176 OCNL LTGIC N TS N MOV NE P0047 T02560244
KMSY 230334Z 36007KT 5SM TSRA BR BKN026CB BKN060 OVC090 26/25 A3004 RMK AO2 LTG DSNT N TSE12B20 OCNL LTGIC N TS N MOV NE P0047 T02610250
KMSY 230322Z 00000KT 2SM TSRA BR BKN026CB BKN035 OVC055 25/24 A3004 RMK AO2 TSE12B20 OCNL LTGIC OHD-N TS OHD-N MOV NE P0047 T02500244
KMSY 230310Z 15009KT 2SM +TSRA BKN030CB BKN040 OVC055 26/23 A3003 RMK AO2 OCNL LTGIC OHD TS OHD MOV NE P0025 T02610233
KMSY 230308Z 16013KT 3SM +TSRA BR BKN029 OVC041 26/24 A3004 RMK AO2 P0020 T02560244
KMSY 230253Z 23005KT 4SM +TSRA BR BKN030CB BKN040 OVC060 27/26 A3004 RMK AO2 RAB25 TSB37 SLP175 OCNL LTGIC OHD TS OHD MOV NE P0002 60002 T02720261 53022
KMSY 230237Z COR 24007KT 10SM TSRA BKN033CB BKN050 OVC250 28/26 A3002 RMK AO2 RAB25 TSB37 OCNL LTGIC SW AND NW TS SW AND NW MOV NE P0000 T02780256
KMSY 230153Z 00000KT 10SM SCT045 BKN150 BKN250 29/26 A3001 RMK AO2 SLP165 T02890256
KMSY 230302Z 2303/2406 VRB04KT P6SM SCT030 BKN150
TEMPO 2303/2305 4SM TSRA BR BKN030CB OVC060
FM230500 VRB03KT P6SM SCT020 BKN150
FM231400 18005KT P6SM VCSH BKN020 BKN060
FM231700 15005KT P6SM -SHRA VCTS SCT025CB BKN060
FM240200 VRB04KT P6SM SCT020 BKN060

 AIRPORT MAP

 RUNWAY INFORMATION
Runway 01 Runway length 7001 ft Runway width 150 ft
Runway elevation 3 ft Runway displaced threshold 0 ft Runway heading 15
Runway 19 Runway length 7001 ft Runway width 150 ft
Runway elevation 0 ft Runway displaced threshold 0 ft Runway heading 195
Runway 06 Runway length 3570 ft Runway width 150 ft
Runway elevation 2 ft Runway displaced threshold 0 ft Runway heading 60
Runway 24 Runway length 3570 ft Runway width 150 ft
Runway elevation 1 ft Runway displaced threshold 0 ft Runway heading 240
Runway 10 Runway length 10104 ft Runway width 150 ft
Runway elevation 4 ft Runway displaced threshold 0 ft Runway heading 106
Runway 28 Runway length 10104 ft Runway width 150 ft
Runway elevation 2 ft Runway displaced threshold 304 ft Runway heading 286

 AIRPORT FREQUENCIES
Type A/D Name NEW ORLEAN Frequency 123.85 MHZ
Type ATIS Name ATIS Frequency 127.55 MHZ
Type CLD Name CLNC DEL Frequency 127.2 MHZ
Type GND Name GND Frequency 121.9 MHZ
Type TWR Name TWR Frequency 119.5 MHZ
Type UNIC Name UNICOM Frequency 122.95 MHZ

 AIRPORT NEAR NAVIGATION AIDS
Type NDB Name Kinte Frequency 338 KHZ

-